createdAt,value
2019-05-07T00:00:34.007Z,4.89
2019-05-07T00:01:34.346Z,4.92
2019-05-07T00:02:34.020Z,4.89
2019-05-07T00:03:33.933Z,4.87
2019-05-07T00:04:33.960Z,4.84
2019-05-07T00:05:33.922Z,4.83
2019-05-07T00:06:33.945Z,4.76
2019-05-07T00:07:33.887Z,4.71
2019-05-07T00:08:33.963Z,4.74
2019-05-07T00:09:33.884Z,4.70
2019-05-07T00:10:33.870Z,4.70
2019-05-07T00:11:33.852Z,4.60
2019-05-07T00:12:33.886Z,4.61
2019-05-07T00:13:33.822Z,4.50
2019-05-07T00:14:37.339Z,4.49
2019-05-07T00:15:33.803Z,4.45
2019-05-07T00:16:42.333Z,4.43
2019-05-07T00:17:33.781Z,4.39
2019-05-07T00:18:42.735Z,4.34
2019-05-07T00:19:33.784Z,4.30
2019-05-07T00:20:33.837Z,4.24
2019-05-07T00:21:33.738Z,4.25
2019-05-07T00:22:33.747Z,4.18
2019-05-07T00:23:33.717Z,4.13
2019-05-07T00:24:33.791Z,4.04
2019-05-07T00:25:33.699Z,3.99
2019-05-07T00:26:33.775Z,4.00
2019-05-07T00:27:33.676Z,3.92
2019-05-07T00:28:33.686Z,3.92
2019-05-07T00:29:33.662Z,3.89
2019-05-07T00:30:33.700Z,3.77
2019-05-07T00:31:33.627Z,3.67
2019-05-07T00:32:33.713Z,3.67
2019-05-07T00:33:33.604Z,3.67
2019-05-07T00:34:33.655Z,3.59
2019-05-07T00:35:33.586Z,3.63
2019-05-07T00:36:33.640Z,3.53
2019-05-07T00:37:33.563Z,3.52
2019-05-07T00:38:33.655Z,3.49
2019-05-07T00:39:33.556Z,3.40
2019-05-07T00:40:33.569Z,3.40
2019-05-07T00:41:33.521Z,3.29
2019-05-07T00:42:33.580Z,3.33
2019-05-07T00:43:33.500Z,3.27
2019-05-07T00:44:33.521Z,3.27
2019-05-07T00:45:33.480Z,3.27
2019-05-07T00:46:33.512Z,3.24
2019-05-07T00:47:33.454Z,3.21
2019-05-07T00:48:33.522Z,3.24
2019-05-07T00:49:33.451Z,3.15
2019-05-07T00:50:33.539Z,3.12
2019-05-07T00:51:33.677Z,3.00
2019-05-07T00:52:33.681Z,3.12
2019-05-07T00:53:33.391Z,3.03
2019-05-07T00:54:33.491Z,3.06
2019-05-07T00:55:33.369Z,3.05
2019-05-07T00:56:33.474Z,2.98
2019-05-07T00:57:33.352Z,2.98
2019-05-07T00:58:33.387Z,3.01
2019-05-07T00:59:33.341Z,3.11
2019-05-07T01:00:33.438Z,3.01
2019-05-07T01:01:33.314Z,3.06
2019-05-07T01:02:33.313Z,2.97
2019-05-07T01:03:33.287Z,2.95
2019-05-07T01:04:34.379Z,2.91
2019-05-07T01:05:33.262Z,2.91
2019-05-07T01:06:35.285Z,2.91
2019-05-07T01:07:33.244Z,2.82
2019-05-07T01:08:33.250Z,2.87
2019-05-07T01:09:33.230Z,2.88
2019-05-07T01:10:33.265Z,2.90
2019-05-07T01:11:33.637Z,2.82
2019-05-07T01:12:33.290Z,2.77
2019-05-07T01:13:33.176Z,2.80
2019-05-07T01:14:33.221Z,2.75
2019-05-07T01:15:34.726Z,2.76
2019-05-07T01:16:33.247Z,2.68
2019-05-07T01:17:33.609Z,2.64
2019-05-07T01:18:33.211Z,2.59
2019-05-07T01:19:33.125Z,2.55
2019-05-07T01:20:33.136Z,2.64
2019-05-07T01:21:33.092Z,2.68
2019-05-07T01:22:33.229Z,2.58
2019-05-07T01:23:33.068Z,2.68
2019-05-07T01:24:33.181Z,2.68
2019-05-07T01:25:33.059Z,2.61
2019-05-07T01:26:33.223Z,2.55
2019-05-07T01:27:33.033Z,2.62
2019-05-07T01:28:33.077Z,2.52
2019-05-07T01:29:33.047Z,2.52
2019-05-07T01:30:33.090Z,2.52
2019-05-07T01:31:33.028Z,2.54
2019-05-07T01:32:33.153Z,2.51
2019-05-07T01:33:33.305Z,2.51
2019-05-07T01:34:33.020Z,2.43
2019-05-07T01:35:32.953Z,2.43
2019-05-07T01:36:33.030Z,2.37
2019-05-07T01:37:32.928Z,2.47
2019-05-07T01:38:33.222Z,2.41
2019-05-07T01:39:32.956Z,2.46
2019-05-07T01:40:32.986Z,2.36
2019-05-07T01:41:32.881Z,2.33
2019-05-07T01:42:36.419Z,2.36
2019-05-07T01:43:32.861Z,2.32
2019-05-07T01:44:32.880Z,2.36
2019-05-07T01:45:45.830Z,2.28
2019-05-07T01:46:33.830Z,2.37
2019-05-07T01:47:33.927Z,2.37
2019-05-07T01:48:32.804Z,2.34
2019-05-07T01:49:47.863Z,2.28
2019-05-07T01:50:32.795Z,2.28
2019-05-07T01:51:34.873Z,2.28
2019-05-07T01:52:33.271Z,2.25
2019-05-07T01:53:33.863Z,2.32
2019-05-07T01:54:33.472Z,2.18
2019-05-07T01:55:32.783Z,2.18
2019-05-07T01:56:33.207Z,2.10
2019-05-07T01:57:32.881Z,2.15
2019-05-07T01:58:33.274Z,2.15
2019-05-07T01:59:32.778Z,2.16
2019-05-07T02:00:32.739Z,2.16
2019-05-07T02:01:35.620Z,2.21
2019-05-07T02:02:32.655Z,2.18
2019-05-07T02:03:32.920Z,2.19
2019-05-07T02:04:32.800Z,2.16
2019-05-07T02:05:32.803Z,2.14
2019-05-07T02:06:32.843Z,2.03
2019-05-07T02:07:33.460Z,2.14
2019-05-07T02:08:32.931Z,2.12
2019-05-07T02:09:34.033Z,2.12
2019-05-07T02:10:32.583Z,1.95
2019-05-07T02:11:32.854Z,2.04
2019-05-07T02:12:32.549Z,1.85
2019-05-07T02:13:33.872Z,1.95
2019-05-07T02:14:33.071Z,1.92
2019-05-07T02:15:32.607Z,1.88
2019-05-07T02:16:32.754Z,1.84
2019-05-07T02:17:32.599Z,1.75
2019-05-07T02:18:32.709Z,1.81
2019-05-07T02:19:33.047Z,1.66
2019-05-07T02:20:32.472Z,1.76
2019-05-07T02:21:33.047Z,1.68
2019-05-07T02:22:32.448Z,1.85
2019-05-07T02:23:32.995Z,1.86
2019-05-07T02:24:33.892Z,1.81
2019-05-07T02:25:32.943Z,1.74
2019-05-07T02:26:32.396Z,1.82
2019-05-07T02:27:32.987Z,1.71
2019-05-07T02:28:32.937Z,1.74
2019-05-07T02:29:32.620Z,1.74
2019-05-07T02:30:35.081Z,1.60
2019-05-07T02:31:33.774Z,1.49
2019-05-07T02:32:33.415Z,1.50
2019-05-07T02:33:35.128Z,1.45
2019-05-07T02:34:34.221Z,1.40
2019-05-07T02:35:33.301Z,1.40
2019-05-07T02:36:33.953Z,1.46
2019-05-07T02:37:46.469Z,1.39
2019-05-07T02:38:34.119Z,1.36
2019-05-07T02:39:34.280Z,1.36
2019-05-07T02:40:33.890Z,1.32
2019-05-07T02:41:33.036Z,1.28
2019-05-07T02:42:33.569Z,1.22
2019-05-07T02:43:33.834Z,1.22
2019-05-07T02:44:32.525Z,1.24
2019-05-07T02:45:33.168Z,1.18
2019-05-07T02:46:36.077Z,1.24
2019-05-07T02:47:33.130Z,1.28
2019-05-07T02:48:33.348Z,1.24
2019-05-07T02:49:32.922Z,1.25
2019-05-07T02:50:32.909Z,1.30
2019-05-07T02:51:33.476Z,1.31
2019-05-07T02:52:32.479Z,1.28
2019-05-07T02:53:33.691Z,1.32
2019-05-07T02:54:32.880Z,1.24
2019-05-07T02:55:33.645Z,1.18
2019-05-07T02:56:33.330Z,1.14
2019-05-07T02:57:33.920Z,1.13
2019-05-07T02:58:33.127Z,1.18
2019-05-07T02:59:33.605Z,1.18
2019-05-07T03:00:33.359Z,1.18
2019-05-07T03:01:33.442Z,1.20
2019-05-07T03:02:33.182Z,1.16
2019-05-07T03:03:33.515Z,1.07
2019-05-07T03:04:33.350Z,1.02
2019-05-07T03:05:35.012Z,1.04
2019-05-07T03:06:33.882Z,1.07
2019-05-07T03:07:33.550Z,1.14
2019-05-07T03:08:33.381Z,1.12
2019-05-07T03:09:32.853Z,1.20
2019-05-07T03:10:34.023Z,1.13
2019-05-07T03:11:33.915Z,1.10
2019-05-07T03:12:33.515Z,1.03
2019-05-07T03:13:33.760Z,1.02
2019-05-07T03:14:32.465Z,1.02
2019-05-07T03:15:33.158Z,0.92
2019-05-07T03:16:39.767Z,0.96
2019-05-07T03:17:33.508Z,1.02
2019-05-07T03:18:33.527Z,1.00
2019-05-07T03:19:33.125Z,1.00
2019-05-07T03:20:33.416Z,1.12
2019-05-07T03:21:32.897Z,1.06
2019-05-07T03:22:33.766Z,1.04
2019-05-07T03:23:34.051Z,1.13
2019-05-07T03:24:38.787Z,1.03
2019-05-07T03:25:33.803Z,0.92
2019-05-07T03:26:34.135Z,0.95
2019-05-07T03:27:34.097Z,0.89
2019-05-07T03:28:33.584Z,0.85
2019-05-07T03:29:33.389Z,0.81
2019-05-07T03:30:36.062Z,0.64
2019-05-07T03:31:36.288Z,0.55
2019-05-07T03:32:38.416Z,0.58
2019-05-07T03:33:36.696Z,0.52
2019-05-07T03:34:36.637Z,0.67
2019-05-07T03:35:36.808Z,0.76
2019-05-07T03:36:35.430Z,0.86
2019-05-07T03:37:35.291Z,0.88
2019-05-07T03:38:33.476Z,0.91
2019-05-07T03:39:33.761Z,0.91
2019-05-07T03:40:32.872Z,0.74
2019-05-07T03:41:33.342Z,0.84
2019-05-07T03:42:33.482Z,0.74
2019-05-07T03:43:32.570Z,0.85
2019-05-07T03:44:33.856Z,0.81
2019-05-07T03:45:33.530Z,0.88
2019-05-07T03:46:33.662Z,0.82
2019-05-07T03:47:33.157Z,0.84
2019-05-07T03:48:33.227Z,0.82
2019-05-07T03:49:34.205Z,0.86
2019-05-07T03:50:33.824Z,0.88
2019-05-07T03:51:32.955Z,0.85
2019-05-07T03:52:33.600Z,0.85
2019-05-07T03:53:33.780Z,0.84
2019-05-07T03:54:33.987Z,0.84
2019-05-07T03:55:33.224Z,0.74
2019-05-07T03:56:33.033Z,0.70
2019-05-07T03:57:33.319Z,0.64
2019-05-07T03:58:33.999Z,0.66
2019-05-07T03:59:34.182Z,0.61
2019-05-07T04:00:33.218Z,0.64
2019-05-07T04:01:33.484Z,0.63
2019-05-07T04:02:33.200Z,0.68
2019-05-07T04:03:34.088Z,0.59
2019-05-07T04:04:33.270Z,0.61
2019-05-07T04:05:34.200Z,0.56
2019-05-07T04:06:33.212Z,0.58
2019-05-07T04:07:33.689Z,0.55
2019-05-07T04:08:33.371Z,0.51
2019-05-07T04:09:33.405Z,0.56
2019-05-07T04:10:33.766Z,0.52
2019-05-07T04:11:33.769Z,0.51
2019-05-07T04:12:34.324Z,0.59
2019-05-07T04:13:33.540Z,0.71
2019-05-07T04:14:34.471Z,0.71
2019-05-07T04:15:32.943Z,0.76
2019-05-07T04:16:33.230Z,0.85
2019-05-07T04:17:33.951Z,0.85
2019-05-07T04:18:32.926Z,0.91
2019-05-07T04:19:32.819Z,0.96
2019-05-07T04:20:33.371Z,1.07
2019-05-07T04:21:34.229Z,1.10
2019-05-07T04:22:34.280Z,1.16
2019-05-07T04:23:34.277Z,1.22
2019-05-07T04:24:33.248Z,1.31
2019-05-07T04:25:34.350Z,1.27
2019-05-07T04:26:33.923Z,1.24
2019-05-07T04:27:33.212Z,1.39
2019-05-07T04:28:33.380Z,1.50
2019-05-07T04:29:31.111Z,1.45
2019-05-07T04:30:33.063Z,1.49
2019-05-07T04:31:33.934Z,1.40
2019-05-07T04:32:33.452Z,1.39
2019-05-07T04:33:33.298Z,1.28
2019-05-07T04:34:33.590Z,1.16
2019-05-07T04:35:33.461Z,1.16
2019-05-07T04:36:33.985Z,1.16
2019-05-07T04:37:33.227Z,1.21
2019-05-07T04:38:33.385Z,1.18
2019-05-07T04:39:33.477Z,1.16
2019-05-07T04:40:33.730Z,1.28
2019-05-07T04:41:33.015Z,1.42
2019-05-07T04:42:33.462Z,1.52
2019-05-07T04:43:33.329Z,1.61
2019-05-07T04:44:33.227Z,1.75
2019-05-07T04:45:33.428Z,1.76
2019-05-07T04:46:33.328Z,1.98
2019-05-07T04:47:41.553Z,2.25
2019-05-07T04:48:34.174Z,2.41
2019-05-07T04:49:33.252Z,2.68
2019-05-07T04:50:39.463Z,2.91
2019-05-07T04:51:33.586Z,3.15
2019-05-07T04:52:33.550Z,3.48
2019-05-07T04:53:32.758Z,3.67
2019-05-07T04:54:32.871Z,3.82
2019-05-07T04:55:33.471Z,3.89
2019-05-07T04:56:33.146Z,4.09
2019-05-07T04:57:33.015Z,4.18
2019-05-07T04:58:34.343Z,4.50
2019-05-07T04:59:33.047Z,4.48
2019-05-07T05:00:45.795Z,4.71
2019-05-07T05:01:32.849Z,4.84
2019-05-07T05:02:32.509Z,4.94
2019-05-07T05:03:30.749Z,4.63
2019-05-07T05:04:34.664Z,4.66
2019-05-07T05:05:32.983Z,4.79
2019-05-07T05:06:32.933Z,4.95
2019-05-07T05:07:33.322Z,5.10
2019-05-07T05:08:32.515Z,5.25
2019-05-07T05:09:32.925Z,5.28
2019-05-07T05:10:33.472Z,5.46
2019-05-07T05:11:33.311Z,5.58
2019-05-07T05:12:32.645Z,5.69
2019-05-07T05:13:33.144Z,5.87
2019-05-07T05:14:33.457Z,5.95
2019-05-07T05:15:32.089Z,6.13
2019-05-07T05:16:32.621Z,6.25
2019-05-07T05:17:32.009Z,6.09
2019-05-07T05:18:32.807Z,5.90
2019-05-07T05:19:32.315Z,5.83
2019-05-07T05:20:30.571Z,5.87
2019-05-07T05:21:32.249Z,5.62
2019-05-07T05:22:31.732Z,5.69
2019-05-07T05:23:32.295Z,6.09
2019-05-07T05:24:32.788Z,5.97
2019-05-07T05:25:32.317Z,6.28
2019-05-07T05:26:32.476Z,6.38
2019-05-07T05:27:32.588Z,6.36
2019-05-07T05:28:32.359Z,6.60
2019-05-07T05:29:32.313Z,6.97
2019-05-07T05:30:32.593Z,7.14
2019-05-07T05:31:30.440Z,6.86
2019-05-07T05:32:32.421Z,7.03
2019-05-07T05:33:32.394Z,7.28
2019-05-07T05:34:32.767Z,7.26
2019-05-07T05:35:32.091Z,7.31
2019-05-07T05:36:32.762Z,7.58
2019-05-07T05:37:32.141Z,7.95
2019-05-07T05:38:32.280Z,8.20
2019-05-07T05:39:32.043Z,8.66
2019-05-07T05:40:32.005Z,8.84
2019-05-07T05:41:30.305Z,8.90
2019-05-07T05:42:37.277Z,9.00
2019-05-07T05:43:31.917Z,9.08
2019-05-07T05:44:32.023Z,9.29
2019-05-07T05:45:30.262Z,9.03
2019-05-07T05:46:31.949Z,9.12
2019-05-07T05:47:30.245Z,9.19
2019-05-07T05:48:30.255Z,9.03
2019-05-07T05:49:32.195Z,8.77
2019-05-07T05:50:32.974Z,8.96
2019-05-07T05:51:31.689Z,8.97
2019-05-07T05:52:30.281Z,8.78
2019-05-07T05:53:32.540Z,8.87
2019-05-07T05:54:31.844Z,8.86
2019-05-07T05:55:32.136Z,8.78
2019-05-07T05:56:32.287Z,9.03
2019-05-07T05:57:32.246Z,9.27
2019-05-07T05:58:32.386Z,9.51
2019-05-07T05:59:47.313Z,9.85
2019-05-07T06:00:32.864Z,9.95
2019-05-07T06:01:32.067Z,10.09
2019-05-07T06:02:32.210Z,10.12
2019-05-07T06:03:32.239Z,10.43
2019-05-07T06:04:30.086Z,10.38
2019-05-07T06:05:33.877Z,10.15
2019-05-07T06:06:30.068Z,10.21
2019-05-07T06:07:31.939Z,10.12
2019-05-07T06:08:32.314Z,10.38
2019-05-07T06:09:30.023Z,10.48
2019-05-07T06:10:30.095Z,10.53
2019-05-07T06:11:32.075Z,10.30
2019-05-07T06:12:30.007Z,10.02
2019-05-07T06:13:32.258Z,10.13
2019-05-07T06:14:30.053Z,10.61
2019-05-07T06:15:29.937Z,11.04
2019-05-07T06:16:30.035Z,11.08
2019-05-07T06:17:31.908Z,11.08
2019-05-07T06:18:29.946Z,11.40
2019-05-07T06:19:29.912Z,11.52
2019-05-07T06:20:32.028Z,11.48
2019-05-07T06:21:32.151Z,11.43
2019-05-07T06:22:29.872Z,11.49
2019-05-07T06:23:29.847Z,11.22
2019-05-07T06:24:31.780Z,11.20
2019-05-07T06:25:33.229Z,10.86
2019-05-07T06:26:31.787Z,10.97
2019-05-07T06:27:29.807Z,11.08
2019-05-07T06:28:36.779Z,11.49
2019-05-07T06:29:29.792Z,11.93
2019-05-07T06:30:37.813Z,11.70
2019-05-07T06:31:29.757Z,11.99
2019-05-07T06:32:32.013Z,12.30
2019-05-07T06:33:29.734Z,12.26
2019-05-07T06:34:29.782Z,11.93
2019-05-07T06:35:29.712Z,12.14
2019-05-07T06:36:29.776Z,12.02
2019-05-07T06:37:29.742Z,12.36
2019-05-07T06:38:31.559Z,12.47
2019-05-07T06:39:29.700Z,12.55
2019-05-07T06:40:32.067Z,12.17
2019-05-07T06:41:29.666Z,12.40
2019-05-07T06:42:29.701Z,12.45
2019-05-07T06:43:29.622Z,12.66
2019-05-07T06:44:31.899Z,11.97
2019-05-07T06:45:32.309Z,11.85
2019-05-07T06:46:29.629Z,12.21
2019-05-07T06:47:31.776Z,12.55
2019-05-07T06:48:38.830Z,12.39
2019-05-07T06:49:32.468Z,12.45
2019-05-07T06:50:29.586Z,12.80
2019-05-07T06:51:29.543Z,13.21
2019-05-07T06:52:31.451Z,13.19
2019-05-07T06:53:29.531Z,13.36
2019-05-07T06:54:31.962Z,13.42
2019-05-07T06:55:29.535Z,12.63
2019-05-07T06:56:29.598Z,12.21
2019-05-07T06:57:29.512Z,12.36
2019-05-07T06:58:29.517Z,12.76
2019-05-07T06:59:32.587Z,12.76
2019-05-07T07:00:31.928Z,12.76
2019-05-07T07:01:29.428Z,13.06
2019-05-07T07:02:29.431Z,13.09
2019-05-07T07:03:29.414Z,13.52
2019-05-07T07:04:29.445Z,13.78
2019-05-07T07:05:29.399Z,14.23
2019-05-07T07:06:29.459Z,14.44
2019-05-07T07:07:33.860Z,14.82
2019-05-07T07:08:32.437Z,15.04
2019-05-07T07:09:29.348Z,14.59
2019-05-07T07:10:29.425Z,14.78
2019-05-07T07:11:29.344Z,14.26
2019-05-07T07:12:29.428Z,13.57
2019-05-07T07:13:29.301Z,13.03
2019-05-07T07:14:29.306Z,13.45
2019-05-07T07:15:29.426Z,14.07
2019-05-07T07:16:29.322Z,13.83
2019-05-07T07:17:29.252Z,13.36
2019-05-07T07:18:29.335Z,13.17
2019-05-07T07:19:29.237Z,12.58
2019-05-07T07:20:29.281Z,12.26
2019-05-07T07:21:29.211Z,12.80
2019-05-07T07:22:29.262Z,13.33
2019-05-07T07:23:29.192Z,13.52
2019-05-07T07:24:29.279Z,13.49
2019-05-07T07:25:29.180Z,13.57
2019-05-07T07:26:29.191Z,13.27
2019-05-07T07:27:29.143Z,12.86
2019-05-07T07:28:29.203Z,12.37
2019-05-07T07:29:29.133Z,11.60
2019-05-07T07:30:29.145Z,11.33
2019-05-07T07:31:29.113Z,11.91
2019-05-07T07:32:29.129Z,12.51
2019-05-07T07:33:29.086Z,12.90
2019-05-07T07:34:29.153Z,13.11
2019-05-07T07:35:29.080Z,13.73
2019-05-07T07:36:29.159Z,14.23
2019-05-07T07:37:29.043Z,14.41
2019-05-07T07:38:29.069Z,14.74
2019-05-07T07:39:29.023Z,15.19
2019-05-07T07:40:29.127Z,15.33
2019-05-07T07:41:28.991Z,14.86
2019-05-07T07:42:29.102Z,14.01
2019-05-07T07:43:28.999Z,13.42
2019-05-07T07:44:29.006Z,12.87
2019-05-07T07:45:28.966Z,12.48
2019-05-07T07:46:29.027Z,12.36
2019-05-07T07:47:28.924Z,11.95
2019-05-07T07:48:28.933Z,11.52
2019-05-07T07:49:28.908Z,11.51
2019-05-07T07:50:28.977Z,11.73
2019-05-07T07:51:40.675Z,11.44
2019-05-07T07:52:29.877Z,11.34
2019-05-07T07:53:32.173Z,11.33
2019-05-07T07:54:31.992Z,11.53
2019-05-07T07:55:28.915Z,12.05
2019-05-07T07:56:28.827Z,12.32
2019-05-07T07:57:29.910Z,12.25
2019-05-07T07:58:31.494Z,12.84
2019-05-07T07:59:35.872Z,13.28
2019-05-07T08:00:30.081Z,13.71
2019-05-07T08:01:36.284Z,14.03
2019-05-07T08:02:28.767Z,14.12
2019-05-07T08:03:32.829Z,14.66
2019-05-07T08:04:28.740Z,15.26
2019-05-07T08:05:29.790Z,15.02
2019-05-07T08:06:28.738Z,14.97
2019-05-07T08:07:28.749Z,14.43
2019-05-07T08:08:28.704Z,13.33
2019-05-07T08:09:28.765Z,12.69
2019-05-07T08:10:28.677Z,12.40
2019-05-07T08:11:28.705Z,12.40
2019-05-07T08:12:28.695Z,12.44
2019-05-07T08:13:28.690Z,12.05
2019-05-07T08:14:28.630Z,12.08
2019-05-07T08:15:28.704Z,12.98
2019-05-07T08:16:28.620Z,13.30
2019-05-07T08:17:28.727Z,13.05
2019-05-07T08:18:28.646Z,12.55
2019-05-07T08:19:28.644Z,13.05
2019-05-07T08:20:28.564Z,13.58
2019-05-07T08:21:28.688Z,13.78
2019-05-07T08:22:28.542Z,14.11
2019-05-07T08:23:28.653Z,13.95
2019-05-07T08:24:28.899Z,14.12
2019-05-07T08:25:28.570Z,14.87
2019-05-07T08:26:28.533Z,15.47
2019-05-07T08:27:28.584Z,15.92
2019-05-07T08:28:28.472Z,16.32
2019-05-07T08:29:28.596Z,15.65
2019-05-07T08:30:28.455Z,15.50
2019-05-07T08:31:28.540Z,15.62
2019-05-07T08:32:28.449Z,15.50
2019-05-07T08:33:28.541Z,15.04
2019-05-07T08:34:28.405Z,14.41
2019-05-07T08:35:28.444Z,14.01
2019-05-07T08:36:28.397Z,13.70
2019-05-07T08:37:28.464Z,13.50
2019-05-07T08:38:30.136Z,13.31
2019-05-07T08:39:28.463Z,13.24
2019-05-07T08:40:28.341Z,12.90
2019-05-07T08:41:28.435Z,12.75
2019-05-07T08:42:28.323Z,13.31
2019-05-07T08:43:28.387Z,14.53
2019-05-07T08:44:28.309Z,14.52
2019-05-07T08:45:29.442Z,15.18
2019-05-07T08:46:28.414Z,15.96
2019-05-07T08:47:28.313Z,16.58
2019-05-07T08:48:28.265Z,16.41
2019-05-07T08:49:36.888Z,16.16
2019-05-07T08:50:29.232Z,16.18
2019-05-07T08:51:28.264Z,16.91
2019-05-07T08:52:28.208Z,16.99
2019-05-07T08:53:28.251Z,16.22
2019-05-07T08:54:28.213Z,15.57
2019-05-07T08:55:28.265Z,15.29
2019-05-07T08:56:28.186Z,15.08
2019-05-07T08:57:29.201Z,15.26
2019-05-07T08:58:28.149Z,14.63
2019-05-07T08:59:28.197Z,14.63
2019-05-07T09:00:28.122Z,15.36
2019-05-07T09:01:28.265Z,16.69
2019-05-07T09:02:28.101Z,16.74
2019-05-07T09:03:28.108Z,16.95
2019-05-07T09:04:28.076Z,16.28
2019-05-07T09:05:28.122Z,16.74
2019-05-07T09:06:28.086Z,16.55
2019-05-07T09:07:28.154Z,16.32
2019-05-07T09:08:28.034Z,16.09
2019-05-07T09:09:28.068Z,15.90
2019-05-07T09:10:28.018Z,15.67
2019-05-07T09:11:28.091Z,15.57
2019-05-07T09:12:27.993Z,15.60
2019-05-07T09:13:28.105Z,15.30
2019-05-07T09:14:27.969Z,14.70
2019-05-07T09:15:27.986Z,14.73
2019-05-07T09:16:27.981Z,15.75
2019-05-07T09:17:28.054Z,16.31
2019-05-07T09:18:27.924Z,16.40
2019-05-07T09:19:28.021Z,16.94
2019-05-07T09:20:27.904Z,17.39
2019-05-07T09:21:27.924Z,17.56
2019-05-07T09:22:27.914Z,17.49
2019-05-07T09:23:27.938Z,17.91
2019-05-07T09:24:27.861Z,18.28
2019-05-07T09:25:27.952Z,18.74
2019-05-07T09:26:27.845Z,18.91
2019-05-07T09:27:29.944Z,19.11
2019-05-07T09:28:27.831Z,19.32
2019-05-07T09:29:29.946Z,19.08
2019-05-07T09:30:28.626Z,17.78
2019-05-07T09:31:27.893Z,17.13
2019-05-07T09:32:27.794Z,16.84
2019-05-07T09:33:27.804Z,16.59
2019-05-07T09:34:27.767Z,17.69
2019-05-07T09:35:31.946Z,17.80
2019-05-07T09:36:27.728Z,17.19
2019-05-07T09:37:27.824Z,16.87
2019-05-07T09:38:27.717Z,16.44
2019-05-07T09:39:27.741Z,16.51
2019-05-07T09:40:27.688Z,16.17
2019-05-07T09:41:27.776Z,15.30
2019-05-07T09:42:27.678Z,16.40
2019-05-07T09:43:27.666Z,17.71
2019-05-07T09:44:27.639Z,18.23
2019-05-07T09:45:27.679Z,18.60
2019-05-07T09:46:27.628Z,17.78
2019-05-07T09:47:27.743Z,17.75
2019-05-07T09:48:27.597Z,17.14
2019-05-07T09:49:27.606Z,17.01
2019-05-07T09:50:27.576Z,16.84
2019-05-07T09:51:27.618Z,16.66
2019-05-07T09:52:27.570Z,16.06
2019-05-07T09:53:27.664Z,15.35
2019-05-07T09:54:27.547Z,14.99
2019-05-07T09:55:27.543Z,14.74
2019-05-07T09:56:27.509Z,14.61
2019-05-07T09:57:31.367Z,14.37
2019-05-07T09:58:36.774Z,14.37
2019-05-07T09:59:28.480Z,14.41
2019-05-07T10:00:27.474Z,14.30
2019-05-07T10:01:27.456Z,15.26
2019-05-07T10:02:27.538Z,16.55
2019-05-07T10:03:27.437Z,16.66
2019-05-07T10:04:27.503Z,16.94
2019-05-07T10:05:27.411Z,16.66
2019-05-07T10:06:27.425Z,16.77
2019-05-07T10:07:27.407Z,16.73
2019-05-07T10:08:27.434Z,17.50
2019-05-07T10:09:27.381Z,17.53
2019-05-07T10:10:27.443Z,16.09
2019-05-07T10:11:27.347Z,15.12
2019-05-07T10:12:42.148Z,14.66
2019-05-07T10:13:27.329Z,14.52
2019-05-07T10:14:28.396Z,14.37
2019-05-07T10:15:27.307Z,14.23
2019-05-07T10:16:34.856Z,14.31
2019-05-07T10:17:27.303Z,13.95
2019-05-07T10:18:27.295Z,13.62
2019-05-07T10:19:27.313Z,13.39
2019-05-07T10:20:27.308Z,13.95
2019-05-07T10:21:27.242Z,14.11
2019-05-07T10:22:27.363Z,14.48
2019-05-07T10:23:27.219Z,14.81
2019-05-07T10:24:27.240Z,16.24
2019-05-07T10:25:27.201Z,17.22
2019-05-07T10:26:27.244Z,17.75
2019-05-07T10:27:27.179Z,17.63
2019-05-07T10:28:27.213Z,17.73
2019-05-07T10:29:27.145Z,17.91
2019-05-07T10:30:27.170Z,18.96
2019-05-07T10:31:27.133Z,19.00
2019-05-07T10:32:27.185Z,19.41
2019-05-07T10:33:27.155Z,18.23
2019-05-07T10:34:27.198Z,17.75
2019-05-07T10:35:27.085Z,18.06
2019-05-07T10:36:27.110Z,18.49
2019-05-07T10:37:27.065Z,17.82
2019-05-07T10:38:27.162Z,16.79
2019-05-07T10:39:27.042Z,16.94
2019-05-07T10:40:27.136Z,17.54
2019-05-07T10:41:27.015Z,18.15
2019-05-07T10:42:27.110Z,17.79
2019-05-07T10:43:27.012Z,17.78
2019-05-07T10:44:27.065Z,18.19
2019-05-07T10:45:26.989Z,19.07
2019-05-07T10:46:26.977Z,19.38
2019-05-07T10:47:26.957Z,19.47
2019-05-07T10:48:27.030Z,18.70
2019-05-07T10:49:26.934Z,17.95
2019-05-07T10:50:36.335Z,17.76
2019-05-07T10:51:27.907Z,17.90
2019-05-07T10:52:26.937Z,19.19
2019-05-07T10:53:26.902Z,19.42
2019-05-07T10:54:26.933Z,18.82
2019-05-07T10:55:26.881Z,18.37
2019-05-07T10:56:26.938Z,17.66
2019-05-07T10:57:26.845Z,17.38
2019-05-07T10:58:32.014Z,16.66
2019-05-07T10:59:26.821Z,16.55
2019-05-07T11:00:26.967Z,16.54
2019-05-07T11:01:26.852Z,16.12
2019-05-07T11:02:28.825Z,15.91
2019-05-07T11:03:26.790Z,15.78
2019-05-07T11:04:39.247Z,15.48
2019-05-07T11:05:27.767Z,15.51
2019-05-07T11:06:26.802Z,15.63
2019-05-07T11:07:26.735Z,15.65
2019-05-07T11:08:26.858Z,15.62
2019-05-07T11:09:26.712Z,15.69
2019-05-07T11:10:26.759Z,15.94
2019-05-07T11:11:26.701Z,15.30
2019-05-07T11:12:26.749Z,14.87
2019-05-07T11:13:26.707Z,14.61
2019-05-07T11:14:26.755Z,14.55
2019-05-07T11:15:26.651Z,14.68
2019-05-07T11:16:26.666Z,15.04
2019-05-07T11:17:26.640Z,15.17
2019-05-07T11:18:26.723Z,15.23
2019-05-07T11:19:26.607Z,15.44
2019-05-07T11:20:26.748Z,15.26
2019-05-07T11:21:26.598Z,15.11
2019-05-07T11:22:26.608Z,15.19
2019-05-07T11:23:26.570Z,15.10
2019-05-07T11:24:26.672Z,15.25
2019-05-07T11:25:26.541Z,15.33
2019-05-07T11:26:26.633Z,15.66
2019-05-07T11:27:26.525Z,15.63
2019-05-07T11:28:26.544Z,15.37
2019-05-07T11:29:26.542Z,15.45
2019-05-07T11:30:26.559Z,15.65
2019-05-07T11:31:26.470Z,15.80
2019-05-07T11:32:26.570Z,16.10
2019-05-07T11:33:26.454Z,16.83
2019-05-07T11:34:26.514Z,17.02
2019-05-07T11:35:26.442Z,17.05
2019-05-07T11:36:26.550Z,16.57
2019-05-07T11:37:26.415Z,16.36
2019-05-07T11:38:26.407Z,16.29
2019-05-07T11:39:26.399Z,16.39
2019-05-07T11:40:26.430Z,16.61
2019-05-07T11:41:26.380Z,16.21
2019-05-07T11:42:27.458Z,16.16
2019-05-07T11:43:26.341Z,16.31
2019-05-07T11:44:28.482Z,15.78
2019-05-07T11:45:26.318Z,15.92
2019-05-07T11:46:28.413Z,16.62
2019-05-07T11:47:26.333Z,17.71
2019-05-07T11:48:28.324Z,17.32
2019-05-07T11:49:26.291Z,17.13
2019-05-07T11:50:26.290Z,16.59
2019-05-07T11:51:26.259Z,16.17
2019-05-07T11:52:26.380Z,16.25
2019-05-07T11:53:26.266Z,16.55
2019-05-07T11:54:26.352Z,16.55
2019-05-07T11:55:26.210Z,16.31
2019-05-07T11:56:26.237Z,16.10
2019-05-07T11:57:26.198Z,15.32
2019-05-07T11:58:26.237Z,15.57
2019-05-07T11:59:26.183Z,15.76
2019-05-07T12:00:26.313Z,15.88
2019-05-07T12:01:26.146Z,15.78
2019-05-07T12:02:26.165Z,16.79
2019-05-07T12:03:26.131Z,17.17
2019-05-07T12:04:27.852Z,17.31
2019-05-07T12:05:26.107Z,17.01
2019-05-07T12:06:26.209Z,16.84
2019-05-07T12:07:26.078Z,17.30
2019-05-07T12:08:37.627Z,17.32
2019-05-07T12:09:27.094Z,17.79
2019-05-07T12:10:26.120Z,18.23
2019-05-07T12:11:26.037Z,18.00
2019-05-07T12:12:26.146Z,17.88
2019-05-07T12:13:26.014Z,17.38
2019-05-07T12:14:30.969Z,17.47
2019-05-07T12:15:27.039Z,17.47
2019-05-07T12:16:26.058Z,17.30
2019-05-07T12:17:25.974Z,17.27
2019-05-07T12:18:26.068Z,17.32
2019-05-07T12:19:25.953Z,16.79
2019-05-07T12:20:26.043Z,16.06
2019-05-07T12:21:25.943Z,15.83
2019-05-07T12:22:25.993Z,15.96
2019-05-07T12:23:25.909Z,15.36
2019-05-07T12:24:26.012Z,14.81
2019-05-07T12:25:25.914Z,14.87
2019-05-07T12:26:25.916Z,14.90
2019-05-07T12:27:25.867Z,15.11
2019-05-07T12:28:26.978Z,15.26
2019-05-07T12:29:25.840Z,15.19
2019-05-07T12:30:25.883Z,15.60
2019-05-07T12:31:25.826Z,16.10
2019-05-07T12:32:42.791Z,16.39
2019-05-07T12:33:25.799Z,16.77
2019-05-07T12:34:25.921Z,17.54
2019-05-07T12:35:25.792Z,18.82
2019-05-07T12:36:27.934Z,17.35
2019-05-07T12:37:25.782Z,16.44
2019-05-07T12:38:25.796Z,15.50
2019-05-07T12:39:25.739Z,14.49
2019-05-07T12:40:25.844Z,14.36
2019-05-07T12:41:25.724Z,14.37
2019-05-07T12:42:25.741Z,14.44
2019-05-07T12:43:25.691Z,14.59
2019-05-07T12:44:25.737Z,14.15
2019-05-07T12:45:25.687Z,14.15
2019-05-07T12:46:25.747Z,14.56
2019-05-07T12:47:25.643Z,14.01
2019-05-07T12:48:25.673Z,13.93
2019-05-07T12:49:25.621Z,14.13
2019-05-07T12:50:25.710Z,14.38
2019-05-07T12:51:34.604Z,13.89
2019-05-07T12:52:26.592Z,13.62
2019-05-07T12:53:25.696Z,13.75
2019-05-07T12:54:25.581Z,14.12
2019-05-07T12:55:25.653Z,14.08
2019-05-07T12:56:25.548Z,14.59
2019-05-07T12:57:25.618Z,16.00
2019-05-07T12:58:25.527Z,16.13
2019-05-07T12:59:25.532Z,16.39
2019-05-07T13:00:26.734Z,16.51
2019-05-07T13:01:25.551Z,17.44
2019-05-07T13:02:37.178Z,18.18
2019-05-07T13:03:26.464Z,18.11
2019-05-07T13:04:25.568Z,18.27